createdAt,value
2018-08-17T00:02:31.916Z,97890.84
2018-08-17T00:05:03.945Z,97891.69
2018-08-17T00:07:34.723Z,97886.14
2018-08-17T00:12:48.002Z,97880.60
2018-08-17T00:15:19.605Z,97884.98
2018-08-17T00:17:51.648Z,97886.55
2018-08-17T00:20:23.144Z,97889.98
2018-08-17T00:22:54.840Z,97886.20
2018-08-17T00:25:26.168Z,97889.49
2018-08-17T00:28:01.423Z,97889.44
2018-08-17T00:30:33.951Z,97883.61
2018-08-17T00:33:07.289Z,97885.81
2018-08-17T00:35:37.203Z,97889.77
2018-08-17T00:38:07.202Z,97881.41
2018-08-17T00:40:37.173Z,97881.76
2018-08-17T00:43:14.806Z,97876.21
2018-08-17T00:45:46.369Z,97877.64
2018-08-17T00:48:16.319Z,97875.05
2018-08-17T00:50:46.376Z,97870.05
2018-08-17T00:53:17.244Z,97876.13
2018-08-17T00:55:47.355Z,97875.93
2018-08-17T00:58:18.088Z,97874.86
2018-08-17T01:00:48.601Z,97873.19
2018-08-17T01:03:19.256Z,97872.16
2018-08-17T01:05:49.291Z,97865.84
2018-08-17T01:08:19.572Z,97869.80
2018-08-17T01:10:50.773Z,97865.89
2018-08-17T01:13:22.411Z,97866.37
2018-08-17T01:15:54.649Z,97868.83
2018-08-17T01:18:24.757Z,97864.48
2018-08-17T01:20:59.723Z,97861.96
2018-08-17T01:23:29.314Z,97867.13
2018-08-17T01:26:00.238Z,97865.80
2018-08-17T01:28:32.648Z,97864.31
2018-08-17T01:31:17.080Z,97864.86
2018-08-17T01:33:47.137Z,97861.02
2018-08-17T01:36:17.782Z,97865.84
2018-08-17T01:38:48.171Z,97863.34
2018-08-17T01:41:18.903Z,97859.70
2018-08-17T01:43:49.540Z,97861.86
2018-08-17T01:46:20.001Z,97849.73
2018-08-17T01:48:51.734Z,97854.95
2018-08-17T01:51:22.484Z,97849.83
2018-08-17T01:53:58.095Z,97857.89
2018-08-17T01:56:27.988Z,97854.46
2018-08-17T01:58:57.915Z,97851.55
2018-08-17T02:06:45.018Z,97845.58
2018-08-17T02:09:16.088Z,97843.90
2018-08-17T02:11:46.062Z,97848.22
2018-08-17T02:14:16.968Z,97847.15
2018-08-17T02:16:47.598Z,97845.28
2018-08-17T02:19:19.296Z,97838.61
2018-08-17T02:21:58.105Z,97840.93
2018-08-17T02:24:28.619Z,97847.88
2018-08-17T02:26:58.643Z,97844.73
2018-08-17T02:29:30.638Z,97845.77
2018-08-17T02:32:02.160Z,97843.96
2018-08-17T02:34:31.971Z,97842.25
2018-08-17T02:37:03.421Z,97844.42
2018-08-17T02:39:33.651Z,97842.66
2018-08-17T02:42:09.402Z,97842.70
2018-08-17T02:44:40.033Z,97838.47
2018-08-17T02:47:09.971Z,97837.70
2018-08-17T02:49:40.100Z,97835.19
2018-08-17T02:52:11.409Z,97833.05
2018-08-17T02:54:41.307Z,97832.70
2018-08-17T02:57:15.950Z,97828.37
2018-08-17T02:59:48.696Z,97830.98
2018-08-17T03:04:53.545Z,97826.53
2018-08-17T03:07:23.359Z,97828.37
2018-08-17T03:09:53.980Z,97823.92
2018-08-17T03:12:25.608Z,97823.80
2018-08-17T03:14:55.623Z,97831.02
2018-08-17T03:17:25.336Z,97835.56
2018-08-17T03:19:57.323Z,97837.05
2018-08-17T03:22:27.309Z,97838.50
2018-08-17T03:24:57.632Z,97835.46
2018-08-17T03:27:29.072Z,97839.72
2018-08-17T03:30:02.513Z,97835.71
2018-08-17T03:32:32.347Z,97837.55
2018-08-17T03:35:02.333Z,97840.75
2018-08-17T03:37:35.718Z,97839.98
2018-08-17T03:40:05.942Z,97843.47
2018-08-17T03:42:36.049Z,97850.40
2018-08-17T03:45:07.808Z,97840.34
2018-08-17T03:47:40.310Z,97848.59
2018-08-17T03:50:10.359Z,97852.72
2018-08-17T03:52:40.217Z,97855.36
2018-08-17T03:55:10.577Z,97854.72
2018-08-17T03:57:46.699Z,97860.01
2018-08-17T04:00:17.351Z,97863.91
2018-08-17T04:02:48.736Z,97868.59
2018-08-17T04:05:18.747Z,97867.27
2018-08-17T04:07:48.634Z,97873.04
2018-08-17T04:10:18.520Z,97868.78
2018-08-17T04:12:48.757Z,97870.98
2018-08-17T04:15:18.607Z,97871.34
2018-08-17T04:17:48.923Z,97877.66
2018-08-17T04:20:18.860Z,97882.11
2018-08-17T04:22:48.991Z,97877.86
2018-08-17T04:25:20.840Z,97885.95
2018-08-17T04:27:54.597Z,97876.41
2018-08-17T04:30:28.913Z,97886.24
2018-08-17T04:33:07.325Z,97884.19
2018-08-17T04:35:37.585Z,97883.22
2018-08-17T04:38:07.765Z,97877.38
2018-08-17T04:40:39.327Z,97889.96
2018-08-17T04:43:09.680Z,97879.34
2018-08-17T04:45:41.136Z,97881.34
2018-08-17T04:48:14.162Z,97888.13
2018-08-17T04:50:46.108Z,97890.20
2018-08-17T04:56:26.191Z,97898.98
2018-08-17T04:59:01.116Z,97894.59
2018-08-17T05:02:20.067Z,97899.05
2018-08-17T05:04:51.379Z,97895.81
2018-08-17T05:07:25.722Z,97894.55
2018-08-17T05:10:02.947Z,97898.23
2018-08-17T05:12:32.790Z,97898.80
2018-08-17T05:15:07.188Z,97906.70
2018-08-17T05:17:38.021Z,97903.84
2018-08-17T05:20:13.110Z,97908.25
2018-08-17T05:22:44.190Z,97912.17
2018-08-17T05:25:16.880Z,97911.58
2018-08-17T05:30:35.001Z,97909.48
2018-08-17T05:33:12.396Z,97915.06
2018-08-17T05:35:52.331Z,97917.45
2018-08-17T05:38:22.693Z,97912.89
2018-08-17T05:40:57.027Z,97916.30
2018-08-17T05:46:09.556Z,97918.88
2018-08-17T05:48:41.109Z,97920.70
2018-08-17T05:51:18.121Z,97921.59
2018-08-17T05:53:55.138Z,97918.84
2018-08-17T05:56:26.356Z,97924.86
2018-08-17T05:58:56.482Z,97922.91
2018-08-17T06:01:27.659Z,97920.96
2018-08-17T06:03:58.009Z,97923.80
2018-08-17T06:06:29.119Z,97927.88
2018-08-17T06:09:00.730Z,97924.08
2018-08-17T06:11:33.487Z,97928.75
2018-08-17T06:14:07.070Z,97923.13
2018-08-17T06:16:37.589Z,97929.80
2018-08-17T06:19:07.804Z,97932.52
2018-08-17T06:21:38.805Z,97935.00
2018-08-17T06:24:08.715Z,97932.34
2018-08-17T06:29:20.441Z,97939.92
2018-08-17T06:31:50.650Z,97936.63
2018-08-17T06:34:26.758Z,97935.34
2018-08-17T06:36:56.462Z,97939.55
2018-08-17T06:39:26.324Z,97945.08
2018-08-17T06:41:56.526Z,97942.77
2018-08-17T06:44:26.260Z,97956.41
2018-08-17T06:46:56.242Z,97949.27
2018-08-17T06:49:28.912Z,97957.61
2018-08-17T06:52:00.567Z,97949.27
2018-08-17T06:54:30.320Z,97950.07
2018-08-17T06:57:01.108Z,97956.00
2018-08-17T06:59:31.007Z,97954.43
2018-08-17T07:02:00.979Z,97964.30
2018-08-17T07:04:30.890Z,97966.96
2018-08-17T07:07:00.655Z,97962.50
2018-08-17T07:09:30.715Z,97958.37
2018-08-17T07:12:00.319Z,97962.42
2018-08-17T07:14:30.134Z,97963.20
2018-08-17T07:17:00.616Z,97966.16
2018-08-17T07:19:32.473Z,97962.95
2018-08-17T07:22:02.882Z,97966.31
2018-08-17T07:24:32.671Z,97969.21
2018-08-17T07:27:03.381Z,97966.72
2018-08-17T07:29:34.096Z,97967.31
2018-08-17T07:32:03.940Z,97976.93
2018-08-17T07:34:35.690Z,97978.28
2018-08-17T07:37:06.258Z,97979.45
2018-08-17T07:39:35.933Z,97982.08
2018-08-17T07:42:06.556Z,97980.59
2018-08-17T07:44:41.137Z,97981.30
2018-08-17T07:47:10.813Z,97978.78
2018-08-17T07:49:40.794Z,97987.47
2018-08-17T07:52:13.594Z,97987.75
2018-08-17T07:54:43.388Z,97992.24
2018-08-17T07:57:13.378Z,97989.61
2018-08-17T07:59:43.550Z,98003.79
2018-08-17T08:02:13.354Z,98006.81
2018-08-17T08:04:43.441Z,98000.92
2018-08-17T08:07:14.090Z,98002.73
2018-08-17T08:09:44.614Z,98005.91
2018-08-17T08:12:15.365Z,98013.24
2018-08-17T08:14:45.902Z,98016.05
2018-08-17T08:20:55.079Z,98030.30
2018-08-17T08:23:27.824Z,98031.86
2018-08-17T08:26:01.583Z,98037.27
2018-08-17T08:28:31.192Z,98041.17
2018-08-17T08:31:01.363Z,98049.66
2018-08-17T08:33:31.134Z,98041.42
2018-08-17T08:36:02.072Z,98042.92
2018-08-17T08:38:32.398Z,98045.82
2018-08-17T08:41:02.335Z,98045.75
2018-08-17T08:43:31.942Z,98052.48
2018-08-17T08:47:11.379Z,98059.41
2018-08-17T08:49:41.073Z,98058.79
2018-08-17T08:52:10.742Z,98063.55
2018-08-17T08:54:45.169Z,98059.27
2018-08-17T08:57:15.427Z,98062.44
2018-08-17T08:59:45.493Z,98064.05
2018-08-17T09:02:16.275Z,98063.11
2018-08-17T09:04:51.069Z,98062.17
2018-08-17T09:07:22.270Z,98070.45
2018-08-17T09:09:54.961Z,98073.85
2018-08-17T09:13:38.151Z,98072.11
2018-08-17T09:16:10.449Z,98072.22
2018-08-17T09:18:50.236Z,98079.17
2018-08-17T09:21:20.252Z,98081.56
2018-08-17T09:23:55.921Z,98079.86
2018-08-17T09:26:30.975Z,98066.88
2018-08-17T09:31:56.465Z,98069.56
2018-08-17T09:34:27.682Z,98073.30
2018-08-17T09:37:01.400Z,98079.59
2018-08-17T09:39:31.753Z,98072.94
2018-08-17T09:45:04.774Z,98073.05
2018-08-17T09:47:34.955Z,98076.45
2018-08-17T09:50:22.746Z,98066.28
2018-08-17T09:52:55.145Z,98057.11
2018-08-17T09:55:24.750Z,98052.07
2018-08-17T09:57:56.739Z,98050.56
2018-08-17T10:00:31.484Z,98051.45
2018-08-17T10:03:06.186Z,98054.81
2018-08-17T10:05:38.777Z,98057.66
2018-08-17T10:08:16.438Z,98057.42
2018-08-17T10:10:46.270Z,98058.40
2018-08-17T10:13:16.710Z,98061.58
2018-08-17T10:15:47.034Z,98054.75
2018-08-17T10:20:57.023Z,98051.66
2018-08-17T10:23:28.785Z,98044.22
2018-08-17T10:26:09.076Z,98043.53
2018-08-17T10:28:38.858Z,98044.08
2018-08-17T10:31:09.894Z,98037.25
2018-08-17T10:34:07.640Z,97990.67
2018-08-17T10:36:48.599Z,98045.08
2018-08-17T10:39:18.850Z,98043.11
2018-08-17T10:42:57.068Z,98042.02
2018-08-17T10:45:27.611Z,98032.23
2018-08-17T10:47:58.734Z,98043.45
2018-08-17T10:50:29.712Z,98030.45
2018-08-17T10:53:00.547Z,98035.59
2018-08-17T10:55:39.851Z,98031.95
2018-08-17T10:58:12.324Z,98033.91
2018-08-17T11:00:43.353Z,98030.38
2018-08-17T11:03:13.475Z,98030.87
2018-08-17T11:05:43.714Z,98034.21
2018-08-17T11:08:13.662Z,98024.61
2018-08-17T11:10:43.493Z,98038.59
2018-08-17T11:13:14.121Z,98033.45
2018-08-17T11:15:44.335Z,98033.19
2018-08-17T11:18:14.575Z,98022.07
2018-08-17T11:20:46.242Z,98021.25
2018-08-17T11:23:17.011Z,98030.20
2018-08-17T11:25:51.602Z,98029.28
2018-08-17T11:28:23.680Z,98022.45
2018-08-17T11:30:53.825Z,98016.05
2018-08-17T11:33:27.990Z,98030.00
2018-08-17T11:35:58.347Z,98029.45
2018-08-17T11:38:31.534Z,98029.61
2018-08-17T11:41:01.150Z,98032.55
2018-08-17T11:43:52.238Z,98022.02
2018-08-17T11:46:25.363Z,98033.59
2018-08-17T11:48:55.255Z,98038.50
2018-08-17T11:51:24.881Z,98041.92
2018-08-17T11:53:54.569Z,98041.78
2018-08-17T11:56:24.206Z,98044.91
2018-08-17T11:58:53.879Z,98046.94
2018-08-17T12:01:29.116Z,98044.42
2018-08-17T12:03:58.785Z,98043.11
2018-08-17T12:06:29.382Z,98040.69
2018-08-17T12:08:58.957Z,98046.00
2018-08-17T12:11:28.530Z,98045.23
2018-08-17T12:13:58.106Z,98034.13
2018-08-17T12:16:29.589Z,98029.86
2018-08-17T12:18:59.939Z,98024.62
2018-08-17T12:21:30.017Z,98025.61
2018-08-17T12:24:06.012Z,98021.63
2018-08-17T12:29:30.194Z,98017.77
2018-08-17T12:34:37.887Z,98017.14
2018-08-17T12:37:25.852Z,98011.28
2018-08-17T12:39:55.777Z,98006.06
2018-08-17T12:45:19.411Z,98001.11
2018-08-17T12:47:50.291Z,97998.28
2018-08-17T12:50:20.012Z,98004.86
2018-08-17T12:52:52.154Z,98001.88
2018-08-17T12:55:23.831Z,98000.92
2018-08-17T12:57:54.728Z,97997.14
2018-08-17T13:00:25.415Z,97998.69
2018-08-17T13:02:55.704Z,98003.73
2018-08-17T13:05:26.848Z,98003.27
2018-08-17T13:10:42.289Z,98010.36
2018-08-17T13:13:22.710Z,98008.87
2018-08-17T13:18:33.316Z,98002.08
2018-08-17T13:21:14.088Z,98006.92
2018-08-17T13:23:43.985Z,98003.16
2018-08-17T13:26:42.956Z,98010.16
2018-08-17T13:29:14.157Z,98012.23
2018-08-17T13:31:43.905Z,98007.95
2018-08-17T13:34:18.471Z,98008.82
2018-08-17T13:36:48.437Z,98006.58
2018-08-17T13:39:18.727Z,98006.40
2018-08-17T13:41:50.971Z,98012.64
2018-08-17T13:44:25.306Z,98008.04
2018-08-17T13:46:55.536Z,98011.37
2018-08-17T13:49:26.085Z,98008.50
2018-08-17T13:51:55.988Z,98000.38
2018-08-17T13:54:25.904Z,97996.17
2018-08-17T13:56:56.092Z,97988.67
2018-08-17T13:59:26.085Z,97993.27
2018-08-17T14:01:59.621Z,97993.19
2018-08-17T14:04:29.497Z,97990.81
2018-08-17T14:06:59.472Z,97992.30
2018-08-17T14:09:30.893Z,97990.84
2018-08-17T14:12:01.737Z,97987.39
2018-08-17T14:14:35.972Z,97987.95
2018-08-17T14:17:06.426Z,97990.20
2018-08-17T14:26:13.708Z,97988.99
2018-08-17T14:28:45.496Z,97992.12
2018-08-17T14:31:17.500Z,97986.45
2018-08-17T14:33:48.459Z,97985.09
2018-08-17T14:36:19.194Z,97985.17
2018-08-17T14:38:54.087Z,97985.51
2018-08-17T14:41:26.870Z,97983.33
2018-08-17T14:43:57.863Z,97991.16
2018-08-17T14:46:39.563Z,97988.81
2018-08-17T14:51:46.943Z,97990.09
2018-08-17T14:54:26.711Z,97996.52
2018-08-17T14:57:01.733Z,98007.77
2018-08-17T14:59:32.666Z,98009.51
2018-08-17T15:02:03.095Z,98013.48
2018-08-17T15:05:35.575Z,98023.44
2018-08-17T15:08:06.022Z,98017.30
2018-08-17T15:10:36.528Z,98020.79
2018-08-17T15:13:06.658Z,98024.64
2018-08-17T15:15:36.765Z,98027.55
2018-08-17T15:18:06.857Z,98022.88
2018-08-17T15:20:36.800Z,98022.81
2018-08-17T15:23:07.789Z,98024.58
2018-08-17T15:25:38.989Z,98017.84
2018-08-17T15:28:09.001Z,98013.10
2018-08-17T15:30:40.517Z,98012.78
2018-08-17T15:33:19.424Z,98013.10
2018-08-17T15:35:49.662Z,98013.30
2018-08-17T15:38:19.574Z,98009.77
2018-08-17T15:40:49.769Z,98002.71
2018-08-17T15:43:21.393Z,98004.80
2018-08-17T15:45:51.576Z,98005.72
2018-08-17T15:53:28.426Z,98011.52
2018-08-17T15:55:58.492Z,98001.82
2018-08-17T15:58:30.081Z,98004.15
2018-08-17T16:01:03.044Z,98000.14
2018-08-17T16:03:34.073Z,98005.70
2018-08-17T16:06:13.997Z,97993.47
2018-08-17T16:08:44.806Z,98003.83
2018-08-17T16:11:15.025Z,97998.59
2018-08-17T16:13:45.576Z,97994.49
2018-08-17T16:16:15.830Z,98007.28
2018-08-17T16:18:46.250Z,98010.77
2018-08-17T16:21:16.327Z,98012.86
2018-08-17T16:23:47.001Z,98017.21
2018-08-17T16:26:17.079Z,98010.92
2018-08-17T16:28:47.810Z,98017.32
2018-08-17T16:31:18.970Z,98015.14
2018-08-17T16:33:49.391Z,98021.34
2018-08-17T16:36:19.980Z,98015.73
2018-08-17T16:38:51.422Z,98019.86
2018-08-17T16:41:22.468Z,98013.42
2018-08-17T16:43:53.725Z,98007.41
2018-08-17T16:46:24.172Z,98012.00
2018-08-17T16:48:53.877Z,98010.41
2018-08-17T16:54:21.736Z,98006.87
2018-08-17T16:56:52.116Z,98013.77
2018-08-17T16:59:22.408Z,98014.81
2018-08-17T17:01:53.568Z,98019.75
2018-08-17T17:04:23.999Z,98015.83
2018-08-17T17:06:54.544Z,98020.44
2018-08-17T17:12:02.987Z,98030.58
2018-08-17T17:14:44.576Z,98031.98
2018-08-17T17:17:16.742Z,98036.26
2018-08-17T17:19:48.202Z,98031.73
2018-08-17T17:22:20.080Z,98028.78
2018-08-17T17:24:50.579Z,98030.61
2018-08-17T17:27:21.602Z,98039.89
2018-08-17T17:30:04.808Z,98040.23
2018-08-17T17:32:34.954Z,98044.41
2018-08-17T17:35:12.545Z,98049.66
2018-08-17T17:37:45.572Z,98050.94
2018-08-17T17:40:17.813Z,98057.80
2018-08-17T17:42:48.852Z,98066.02
2018-08-17T17:48:19.118Z,98075.16
2018-08-17T17:50:50.253Z,98077.63
2018-08-17T17:57:19.020Z,98086.33
2018-08-17T18:00:01.579Z,98090.07
2018-08-17T18:02:33.867Z,98090.45
2018-08-17T18:11:08.696Z,98106.20
2018-08-17T18:13:46.139Z,98116.25
2018-08-17T18:16:17.281Z,98130.11
2018-08-17T18:18:50.375Z,98120.78
2018-08-17T18:21:24.782Z,98127.80
2018-08-17T18:24:12.556Z,98137.45
2018-08-17T18:30:40.570Z,98144.98
2018-08-17T18:36:09.752Z,98152.49
2018-08-17T18:44:26.486Z,98179.22
2018-08-17T18:47:28.176Z,98175.70
2018-08-17T18:53:13.486Z,98193.95
2018-08-17T18:55:59.185Z,98204.88
2018-08-17T18:59:02.404Z,98205.58
2018-08-17T19:01:39.200Z,98212.97
2018-08-17T19:04:10.368Z,98217.72
2018-08-17T19:06:43.528Z,98216.63
2018-08-17T19:09:14.740Z,98225.63
2018-08-17T19:11:46.049Z,98225.36
2018-08-17T19:14:22.948Z,98231.28
2018-08-17T19:16:54.091Z,98233.45
2018-08-17T19:19:25.203Z,98236.16
2018-08-17T19:24:50.560Z,98232.92
2018-08-17T19:30:03.753Z,98242.17
2018-08-17T19:32:34.977Z,98245.22
2018-08-17T19:35:05.940Z,98239.59
2018-08-17T19:37:40.567Z,98250.92
2018-08-17T19:40:10.928Z,98251.29
2018-08-17T19:42:41.717Z,98255.94
2018-08-17T19:48:00.602Z,98256.10
2018-08-17T19:50:41.595Z,98259.62
2018-08-17T19:53:11.708Z,98253.84
2018-08-17T19:55:41.776Z,98259.89
2018-08-17T19:58:15.599Z,98256.94
2018-08-17T20:00:48.979Z,98256.95
2018-08-17T20:03:25.550Z,98265.31
2018-08-17T20:06:24.940Z,98264.18
2018-08-17T20:08:54.918Z,98269.25
2018-08-17T20:11:43.664Z,98113.63
2018-08-17T20:14:19.993Z,98263.91
2018-08-17T20:16:56.465Z,98268.13
2018-08-17T20:19:45.271Z,98261.45
2018-08-17T20:22:24.036Z,98266.84
2018-08-17T20:27:34.176Z,98271.21
2018-08-17T20:30:38.084Z,98275.91
2018-08-17T20:33:22.039Z,98287.94
2018-08-17T20:39:03.055Z,98298.83
2018-08-17T20:41:41.917Z,98305.33
2018-08-17T20:44:12.448Z,98306.16
2018-08-17T20:46:50.856Z,98307.69
2018-08-17T20:49:22.876Z,98312.34
2018-08-17T20:52:08.297Z,98320.89
2018-08-17T20:54:40.567Z,98321.88
2018-08-17T20:57:23.010Z,98332.60
2018-08-17T20:59:56.266Z,98334.13
2018-08-17T21:02:27.861Z,98341.30
2018-08-17T21:05:03.115Z,98346.79
2018-08-17T21:07:34.983Z,98352.81
2018-08-17T21:12:40.131Z,98363.18
2018-08-17T21:15:15.965Z,98370.19
2018-08-17T21:17:46.205Z,98368.88
2018-08-17T21:20:17.652Z,98384.55
2018-08-17T21:22:47.913Z,98391.41
2018-08-17T21:25:18.002Z,98401.73
2018-08-17T21:27:49.124Z,98393.08
2018-08-17T21:30:20.906Z,98400.92
2018-08-17T21:32:51.212Z,98399.88
2018-08-17T21:35:26.953Z,98404.22
2018-08-17T21:37:57.457Z,98404.39
2018-08-17T21:40:29.156Z,98408.72
2018-08-17T21:43:02.004Z,98410.05
2018-08-17T21:45:33.647Z,98407.22
2018-08-17T21:48:06.046Z,98415.20
2018-08-17T21:50:51.184Z,98416.86
2018-08-17T21:53:25.979Z,98427.53
2018-08-17T21:55:57.459Z,98429.83
2018-08-17T21:58:28.352Z,98436.14
2018-08-17T22:01:00.355Z,98443.42
2018-08-17T22:06:15.243Z,98446.84
2018-08-17T22:08:51.567Z,98452.14
2018-08-17T22:11:45.380Z,98456.58
2018-08-17T22:16:54.133Z,98462.11
2018-08-17T22:19:36.368Z,98464.45
2018-08-17T22:22:07.513Z,98469.47
2018-08-17T22:24:43.879Z,98474.80
2018-08-17T22:29:56.402Z,98483.14
2018-08-17T22:32:26.834Z,98490.16
2018-08-17T22:34:58.686Z,98494.01
2018-08-17T22:38:42.877Z,98495.84
2018-08-17T22:41:13.914Z,98495.80
2018-08-17T22:43:44.135Z,98500.72
2018-08-17T22:46:15.729Z,98501.88
2018-08-17T22:48:46.619Z,98496.54
2018-08-17T22:51:17.764Z,98487.75
2018-08-17T22:53:47.876Z,98481.88
2018-08-17T22:56:18.005Z,98467.15
2018-08-17T22:58:48.692Z,98456.78
2018-08-17T23:01:20.332Z,98453.06
2018-08-17T23:03:54.577Z,98448.28
2018-08-17T23:06:26.532Z,98434.23
2018-08-17T23:09:10.809Z,98423.45
2018-08-17T23:11:41.327Z,98407.73
2018-08-17T23:14:18.017Z,98408.91
2018-08-17T23:16:48.122Z,98409.71
2018-08-17T23:19:17.978Z,98404.05
2018-08-17T23:21:47.701Z,98407.90
2018-08-17T23:24:17.692Z,98392.16
2018-08-17T23:26:50.841Z,98388.33
2018-08-17T23:29:20.645Z,98383.94
2018-08-17T23:31:50.255Z,98383.19
2018-08-17T23:34:19.917Z,98381.84
2018-08-17T23:36:50.329Z,98384.93
2018-08-17T23:39:19.897Z,98387.69
2018-08-17T23:41:50.107Z,98397.30
2018-08-17T23:44:19.867Z,98397.93
2018-08-17T23:46:49.727Z,98407.20
2018-08-17T23:49:30.444Z,98411.02
2018-08-17T23:52:00.567Z,98414.06
2018-08-17T23:54:30.340Z,98420.20
2018-08-17T23:57:00.489Z,98419.16
2018-08-17T23:59:31.540Z,98421.44
